TimeMDT,TemperatureF,Dew PointF,Humidity,Sea Level PressureIn,VisibilityMPH,Wind Direction,Wind SpeedMPH,Gust SpeedMPH,PrecipitationIn,Events,Conditions,WindDirDegrees,DateUTC
12:51 AM,28.0,21.0,75,29.82,10.0,SSE,9.2,-,N/A,,Overcast,150,2012-03-12 06:51:00
1:51 AM,21.9,18.0,85,29.86,10.0,South,5.8,-,N/A,,Clear,180,2012-03-12 07:51:00
2:51 AM,21.9,17.1,82,29.86,10.0,Calm,Calm,-,N/A,,Partly Cloudy,0,2012-03-12 08:51:00
3:51 AM,24.1,19.0,81,29.85,10.0,Variable,3.5,-,N/A,,Overcast,0,2012-03-12 09:51:00
4:51 AM,26.1,21.0,81,29.85,10.0,South,6.9,-,N/A,,Overcast,170,2012-03-12 10:51:00
5:51 AM,25.0,21.0,85,29.86,10.0,Calm,Calm,-,N/A,,Overcast,0,2012-03-12 11:51:00
6:51 AM,25.0,21.0,85,29.85,10.0,Calm,Calm,-,N/A,,Overcast,0,2012-03-12 12:51:00
7:51 AM,27.0,24.1,89,29.85,2.5,SSE,9.2,-,0.00,Snow,Light Snow,160,2012-03-12 13:51:00
7:58 AM,26.6,24.8,93,29.77,2.5,SSE,6.9,-,0.00,Snow,Light Snow,160,2012-03-12 13:58:00
8:08 AM,26.6,24.8,93,29.78,4.0,SE,5.8,-,0.00,Snow,Light Snow,140,2012-03-12 14:08:00
8:18 AM,26.6,24.8,93,29.78,2.5,SE,4.6,-,0.00,Snow,Light Snow,140,2012-03-12 14:18:00
8:33 AM,26.6,24.8,93,29.78,1.8,SSE,4.6,-,0.00,Snow,Light Snow,150,2012-03-12 14:33:00
8:40 AM,26.6,24.8,93,29.78,2.5,Calm,Calm,-,0.00,Snow,Light Snow,0,2012-03-12 14:40:00
8:51 AM,27.0,24.1,89,29.85,2.0,SE,4.6,-,0.00,Snow,Light Snow,140,2012-03-12 14:51:00
9:05 AM,26.6,24.8,93,29.77,1.5,Variable,3.5,-,0.01,Snow,Light Snow,0,2012-03-12 15:05:00
9:37 AM,26.6,24.8,93,29.78,1.2,SSE,4.6,-,0.02,Snow,Light Snow,150,2012-03-12 15:37:00
9:51 AM,27.0,25.0,92,29.85,1.2,SE,4.6,-,0.02,Snow,Light Snow,140,2012-03-12 15:51:00
10:02 AM,28.4,24.8,86,29.78,3.0,SE,6.9,-,0.00,Snow,Light Snow,130,2012-03-12 16:02:00
10:16 AM,28.4,24.8,86,29.77,2.5,SE,6.9,-,0.00,Snow,Light Snow,140,2012-03-12 16:16:00
10:39 AM,28.4,26.6,93,29.78,3.0,SSE,10.4,-,0.01,Snow,Light Snow,150,2012-03-12 16:39:00
10:45 AM,28.4,26.6,93,29.78,3.0,SSE,10.4,-,0.01,Snow,Light Snow,150,2012-03-12 16:45:00
10:51 AM,28.9,26.1,89,29.86,4.0,SSE,10.4,-,0.01,Snow,Light Snow,150,2012-03-12 16:51:00
11:19 AM,30.2,26.6,86,29.77,9.0,SSE,10.4,-,0.00,,Overcast,160,2012-03-12 17:19:00
11:32 AM,30.2,28.4,93,29.77,7.0,SSE,10.4,-,0.00,Snow,Light Snow,150,2012-03-12 17:32:00
11:51 AM,30.9,28.0,89,29.84,5.0,SSE,11.5,-,0.00,Snow,Light Snow,150,2012-03-12 17:51:00
12:03 PM,32.0,28.4,87,29.77,2.5,SSE,6.9,-,0.00,Snow,Light Snow,150,2012-03-12 18:03:00
12:09 PM,32.0,28.4,87,29.77,2.0,SSE,9.2,-,0.00,Snow,Light Snow,150,2012-03-12 18:09:00
12:14 PM,32.0,28.4,87,29.77,1.8,SSE,8.1,-,0.00,Snow,Light Snow,160,2012-03-12 18:14:00
12:36 PM,32.0,30.2,93,29.77,1.0,SSE,12.7,-,0.00,Snow,Light Snow,160,2012-03-12 18:36:00
12:51 PM,32.0,30.0,92,29.84,1.0,SSE,10.4,19.6,0.01,Snow,Light Snow,160,2012-03-12 18:51:00
1:12 PM,32.0,30.2,93,29.76,1.2,SSE,11.5,18.4,0.01,Snow,Light Snow,160,2012-03-12 19:12:00
1:33 PM,32.0,30.2,93,29.76,1.0,SSE,13.8,-,0.01,Snow,Light Snow,160,2012-03-12 19:33:00
1:39 PM,32.0,30.2,93,29.76,0.8,SSE,15.0,20.7,0.01,Snow,Light Snow,160,2012-03-12 19:39:00
1:45 PM,32.0,30.2,93,29.76,0.8,SSE,13.8,-,0.01,Snow,Light Snow,160,2012-03-12 19:45:00
1:51 PM,32.0,30.0,92,29.86,0.8,SSE,17.3,-,0.02,Snow,Light Snow,160,2012-03-12 19:51:00
2:08 PM,32.0,30.2,93,29.76,0.8,SSE,11.5,20.7,0.00,Snow,Light Snow,150,2012-03-12 20:08:00
2:51 PM,32.0,30.0,92,29.84,0.8,SSE,15.0,-,0.02,Snow,Light Snow,150,2012-03-12 20:51:00
3:18 PM,32.0,30.2,93,29.75,0.5,SSE,12.7,21.9,0.02,Fog-Snow,Light Snow,160,2012-03-12 21:18:00
3:51 PM,33.1,30.0,89,29.82,0.8,SSE,12.7,-,0.04,Snow,Light Snow,150,2012-03-12 21:51:00
4:29 PM,33.8,30.2,87,29.75,1.0,SSE,11.5,-,0.01,Snow,Light Snow,150,2012-03-12 22:29:00
4:40 PM,33.8,30.2,87,29.74,1.5,SSE,10.4,21.9,0.02,Snow,Light Snow,150,2012-03-12 22:40:00
4:49 PM,33.8,30.2,87,29.74,2.0,SE,11.5,-,0.02,Snow,Light Snow,140,2012-03-12 22:49:00
4:51 PM,34.0,30.0,85,29.81,2.0,SSE,10.4,-,0.02,Snow,Light Snow,150,2012-03-12 22:51:00
4:55 PM,33.8,30.2,87,29.74,1.8,SSE,12.7,-,0.00,Snow,Light Snow,150,2012-03-12 22:55:00
5:06 PM,33.8,30.2,87,29.74,1.5,SSE,11.5,19.6,0.00,Snow,Light Snow,150,2012-03-12 23:06:00
5:19 PM,33.8,30.2,87,29.73,1.0,SSE,11.5,-,0.00,Snow,Light Snow,150,2012-03-12 23:19:00
5:26 PM,33.8,30.2,87,29.73,1.5,SSE,10.4,-,0.00,Snow,Light Snow,160,2012-03-12 23:26:00
5:51 PM,33.1,30.0,89,29.80,1.2,SSE,12.7,-,0.01,Snow,Light Snow,160,2012-03-12 23:51:00
6:04 PM,33.8,30.2,87,29.72,2.5,SSE,10.4,-,N/A,Snow,Light Snow,150,2012-03-13 00:04:00
6:13 PM,33.8,30.2,87,29.72,1.2,SSE,9.2,-,N/A,Snow,Light Snow,160,2012-03-13 00:13:00
7:14 PM,33.8,30.2,87,29.70,6.0,SSE,10.4,-,0.01,Snow,Light Snow,160,2012-03-13 01:14:00
7:36 PM,33.8,30.2,87,29.69,10.0,SE,5.8,-,0.01,,Overcast,140,2012-03-13 01:36:00
7:51 PM,34.0,30.9,89,29.75,10.0,SE,5.8,-,0.01,,Overcast,140,2012-03-13 01:51:00
8:51 PM,35.1,30.0,82,29.71,10.0,SSE,5.8,-,N/A,,Overcast,150,2012-03-13 02:51:00
9:51 PM,35.1,28.9,78,29.70,10.0,South,4.6,-,N/A,,Overcast,190,2012-03-13 03:51:00
10:51 PM,34.0,30.9,89,29.69,10.0,Variable,3.5,-,N/A,,Overcast,0,2012-03-13 04:51:00
11:51 PM,41.0,28.0,60,29.65,10.0,SSE,15.0,25.3,N/A,,Overcast,150,2012-03-13 05:51:00